sensor_id;sensor_type;location;lat;lon;timestamp;temperature;humidity
5210;DHT22;2624;48.048;11.706;2023-10-19T00:02:10;8.10;99.90
5210;DHT22;2624;48.048;11.706;2023-10-19T00:07:15;8.20;99.90
5210;DHT22;2624;48.048;11.706;2023-10-19T00:12:18;8.40;99.90
5210;DHT22;2624;48.048;11.706;2023-10-19T00:17:22;8.40;99.90
5210;DHT22;2624;48.048;11.706;2023-10-19T00:22:27;8.40;99.90
5210;DHT22;2624;48.048;11.706;2023-10-19T00:27:33;8.30;99.90
5210;DHT22;2624;48.048;11.706;2023-10-19T00:32:35;8.30;99.90
5210;DHT22;2624;48.048;11.706;2023-10-19T00:37:39;8.60;99.90
5210;DHT22;2624;48.048;11.706;2023-10-19T00:42:44;8.60;99.90
5210;DHT22;2624;48.048;11.706;2023-10-19T00:47:50;8.60;99.90
5210;DHT22;2624;48.048;11.706;2023-10-19T00:52:53;8.60;99.90
5210;DHT22;2624;48.048;11.706;2023-10-19T00:58:00;8.50;99.90
5210;DHT22;2624;48.048;11.706;2023-10-19T01:03:11;8.70;99.90
5210;DHT22;2624;48.048;11.706;2023-10-19T01:08:17;8.60;99.90
5210;DHT22;2624;48.048;11.706;2023-10-19T01:13:26;8.30;99.90
5210;DHT22;2624;48.048;11.706;2023-10-19T01:18:29;8.20;99.90
5210;DHT22;2624;48.048;11.706;2023-10-19T01:23:34;8.50;99.90
5210;DHT22;2624;48.048;11.706;2023-10-19T01:28:38;8.20;99.90
5210;DHT22;2624;48.048;11.706;2023-10-19T01:33:44;7.90;99.90
5210;DHT22;2624;48.048;11.706;2023-10-19T01:38:48;8.40;99.90
5210;DHT22;2624;48.048;11.706;2023-10-19T01:43:51;8.50;99.90
5210;DHT22;2624;48.048;11.706;2023-10-19T01:48:54;8.40;99.90
5210;DHT22;2624;48.048;11.706;2023-10-19T01:53:57;8.40;99.90
5210;DHT22;2624;48.048;11.706;2023-10-19T01:59:01;8.40;99.90
5210;DHT22;2624;48.048;11.706;2023-10-19T02:04:05;8.40;99.90
5210;DHT22;2624;48.048;11.706;2023-10-19T02:09:12;8.40;99.90
5210;DHT22;2624;48.048;11.706;2023-10-19T02:14:26;8.30;99.90
5210;DHT22;2624;48.048;11.706;2023-10-19T02:19:30;8.30;99.90
5210;DHT22;2624;48.048;11.706;2023-10-19T02:24:34;8.10;99.90
5210;DHT22;2624;48.048;11.706;2023-10-19T02:29:36;7.90;99.90
5210;DHT22;2624;48.048;11.706;2023-10-19T02:34:38;8.20;99.90
5210;DHT22;2624;48.048;11.706;2023-10-19T02:39:41;8.40;99.90
5210;DHT22;2624;48.048;11.706;2023-10-19T02:44:44;8.50;99.90
5210;DHT22;2624;48.048;11.706;2023-10-19T02:49:46;8.40;99.90
5210;DHT22;2624;48.048;11.706;2023-10-19T02:54:53;8.50;99.90
5210;DHT22;2624;48.048;11.706;2023-10-19T02:59:57;8.50;99.90
5210;DHT22;2624;48.048;11.706;2023-10-19T03:04:59;8.40;99.90
5210;DHT22;2624;48.048;11.706;2023-10-19T03:10:03;8.40;99.90
5210;DHT22;2624;48.048;11.706;2023-10-19T03:15:06;8.50;99.90
5210;DHT22;2624;48.048;11.706;2023-10-19T03:20:09;8.40;99.90
5210;DHT22;2624;48.048;11.706;2023-10-19T03:25:13;8.40;99.90
5210;DHT22;2624;48.048;11.706;2023-10-19T03:30:31;8.20;99.90
5210;DHT22;2624;48.048;11.706;2023-10-19T03:35:35;8.20;99.90
5210;DHT22;2624;48.048;11.706;2023-10-19T03:40:39;8.40;99.90
5210;DHT22;2624;48.048;11.706;2023-10-19T03:45:42;8.20;99.90
5210;DHT22;2624;48.048;11.706;2023-10-19T03:50:50;8.10;99.90
5210;DHT22;2624;48.048;11.706;2023-10-19T03:55:55;8.00;99.90
5210;DHT22;2624;48.048;11.706;2023-10-19T04:00:56;8.00;99.90
5210;DHT22;2624;48.048;11.706;2023-10-19T04:06:02;8.10;99.90
5210;DHT22;2624;48.048;11.706;2023-10-19T04:11:06;8.20;99.90
5210;DHT22;2624;48.048;11.706;2023-10-19T04:16:21;8.20;99.90
5210;DHT22;2624;48.048;11.706;2023-10-19T04:21:23;8.20;99.90
5210;DHT22;2624;48.048;11.706;2023-10-19T04:26:26;8.20;99.90
5210;DHT22;2624;48.048;11.706;2023-10-19T04:31:29;8.40;99.90
5210;DHT22;2624;48.048;11.706;2023-10-19T04:36:30;8.40;99.90
5210;DHT22;2624;48.048;11.706;2023-10-19T04:41:33;8.30;99.90
5210;DHT22;2624;48.048;11.706;2023-10-19T04:46:35;8.20;99.90
5210;DHT22;2624;48.048;11.706;2023-10-19T04:51:37;8.30;99.90
5210;DHT22;2624;48.048;11.706;2023-10-19T04:56:40;8.40;99.90
5210;DHT22;2624;48.048;11.706;2023-10-19T05:01:42;8.40;99.90
5210;DHT22;2624;48.048;11.706;2023-10-19T05:06:44;8.40;99.90
5210;DHT22;2624;48.048;11.706;2023-10-19T05:11:47;8.40;99.90
5210;DHT22;2624;48.048;11.706;2023-10-19T05:16:49;8.40;99.90
5210;DHT22;2624;48.048;11.706;2023-10-19T05:21:50;8.20;99.90
5210;DHT22;2624;48.048;11.706;2023-10-19T05:26:54;8.20;99.90
5210;DHT22;2624;48.048;11.706;2023-10-19T05:31:56;8.20;99.90
5210;DHT22;2624;48.048;11.706;2023-10-19T05:36:58;8.20;99.90
5210;DHT22;2624;48.048;11.706;2023-10-19T05:42:04;8.20;99.90
5210;DHT22;2624;48.048;11.706;2023-10-19T05:47:06;8.30;99.90
5210;DHT22;2624;48.048;11.706;2023-10-19T05:52:08;8.40;99.90
5210;DHT22;2624;48.048;11.706;2023-10-19T05:57:12;8.40;99.90
5210;DHT22;2624;48.048;11.706;2023-10-19T06:02:14;8.40;99.90
5210;DHT22;2624;48.048;11.706;2023-10-19T06:07:16;8.40;99.90
5210;DHT22;2624;48.048;11.706;2023-10-19T06:12:19;8.30;99.90
5210;DHT22;2624;48.048;11.706;2023-10-19T06:17:21;8.30;99.90
5210;DHT22;2624;48.048;11.706;2023-10-19T06:22:23;8.20;99.90
5210;DHT22;2624;48.048;11.706;2023-10-19T06:27:26;8.30;99.90
5210;DHT22;2624;48.048;11.706;2023-10-19T06:32:30;8.30;99.90
5210;DHT22;2624;48.048;11.706;2023-10-19T06:37:31;8.30;99.90
5210;DHT22;2624;48.048;11.706;2023-10-19T06:42:35;8.40;99.90
5210;DHT22;2624;48.048;11.706;2023-10-19T06:47:37;8.40;99.90
5210;DHT22;2624;48.048;11.706;2023-10-19T06:52:39;8.50;99.90
5210;DHT22;2624;48.048;11.706;2023-10-19T06:57:43;8.50;99.90
5210;DHT22;2624;48.048;11.706;2023-10-19T07:02:45;8.70;99.90
5210;DHT22;2624;48.048;11.706;2023-10-19T07:07:47;8.70;99.90
5210;DHT22;2624;48.048;11.706;2023-10-19T07:12:53;8.70;99.90
5210;DHT22;2624;48.048;11.706;2023-10-19T07:17:55;8.80;99.90
5210;DHT22;2624;48.048;11.706;2023-10-19T07:22:58;8.90;99.90
5210;DHT22;2624;48.048;11.706;2023-10-19T07:28:02;9.00;99.90
5210;DHT22;2624;48.048;11.706;2023-10-19T07:33:06;9.10;99.90
5210;DHT22;2624;48.048;11.706;2023-10-19T07:38:08;9.00;99.90
5210;DHT22;2624;48.048;11.706;2023-10-19T07:43:11;8.90;99.90
5210;DHT22;2624;48.048;11.706;2023-10-19T07:48:14;9.40;99.90
5210;DHT22;2624;48.048;11.706;2023-10-19T07:53:16;9.40;99.90
5210;DHT22;2624;48.048;11.706;2023-10-19T07:58:19;9.50;99.90
5210;DHT22;2624;48.048;11.706;2023-10-19T08:03:20;9.60;99.90
5210;DHT22;2624;48.048;11.706;2023-10-19T08:08:22;9.90;99.90
5210;DHT22;2624;48.048;11.706;2023-10-19T08:13:26;9.90;99.90
5210;DHT22;2624;48.048;11.706;2023-10-19T08:18:28;9.80;99.90
5210;DHT22;2624;48.048;11.706;2023-10-19T08:23:31;10.30;99.90
5210;DHT22;2624;48.048;11.706;2023-10-19T08:28:34;10.50;99.90
5210;DHT22;2624;48.048;11.706;2023-10-19T08:33:37;10.50;99.90
5210;DHT22;2624;48.048;11.706;2023-10-19T08:38:41;10.50;99.90
5210;DHT22;2624;48.048;11.706;2023-10-19T08:43:45;11.20;99.90
5210;DHT22;2624;48.048;11.706;2023-10-19T08:48:46;11.00;99.90
5210;DHT22;2624;48.048;11.706;2023-10-19T08:53:49;10.70;99.90
5210;DHT22;2624;48.048;11.706;2023-10-19T08:58:53;10.90;99.90
5210;DHT22;2624;48.048;11.706;2023-10-19T09:03:57;10.80;99.90
5210;DHT22;2624;48.048;11.706;2023-10-19T09:08:58;10.90;99.90
5210;DHT22;2624;48.048;11.706;2023-10-19T09:14:02;11.00;99.90
5210;DHT22;2624;48.048;11.706;2023-10-19T09:19:04;11.50;99.90
5210;DHT22;2624;48.048;11.706;2023-10-19T09:24:07;12.10;99.90
5210;DHT22;2624;48.048;11.706;2023-10-19T09:29:13;12.50;99.90
5210;DHT22;2624;48.048;11.706;2023-10-19T09:34:19;12.70;99.90
5210;DHT22;2624;48.048;11.706;2023-10-19T09:39:22;11.80;99.90
5210;DHT22;2624;48.048;11.706;2023-10-19T09:44:26;11.80;99.90
5210;DHT22;2624;48.048;11.706;2023-10-19T09:49:31;11.60;99.90
5210;DHT22;2624;48.048;11.706;2023-10-19T09:54:40;11.80;99.90
5210;DHT22;2624;48.048;11.706;2023-10-19T09:59:53;11.90;99.90
5210;DHT22;2624;48.048;11.706;2023-10-19T10:04:58;12.30;99.90
5210;DHT22;2624;48.048;11.706;2023-10-19T10:10:01;12.20;99.90
5210;DHT22;2624;48.048;11.706;2023-10-19T10:15:07;12.10;99.90
5210;DHT22;2624;48.048;11.706;2023-10-19T10:20:30;12.40;99.90
5210;DHT22;2624;48.048;11.706;2023-10-19T10:25:34;12.50;99.90
5210;DHT22;2624;48.048;11.706;2023-10-19T10:31:07;12.50;99.90
5210;DHT22;2624;48.048;11.706;2023-10-19T10:36:10;12.60;99.90
5210;DHT22;2624;48.048;11.706;2023-10-19T10:41:12;12.80;99.90
5210;DHT22;2624;48.048;11.706;2023-10-19T10:46:25;12.00;99.90
5210;DHT22;2624;48.048;11.706;2023-10-19T10:51:29;12.60;99.90
5210;DHT22;2624;48.048;11.706;2023-10-19T10:56:31;12.60;99.90
5210;DHT22;2624;48.048;11.706;2023-10-19T11:01:35;12.40;99.90
5210;DHT22;2624;48.048;11.706;2023-10-19T11:06:47;12.40;99.90
5210;DHT22;2624;48.048;11.706;2023-10-19T11:11:50;12.50;99.90
5210;DHT22;2624;48.048;11.706;2023-10-19T11:16:54;13.00;99.90
5210;DHT22;2624;48.048;11.706;2023-10-19T11:21:56;14.00;99.90
5210;DHT22;2624;48.048;11.706;2023-10-19T11:26:59;13.70;99.90
5210;DHT22;2624;48.048;11.706;2023-10-19T11:32:03;14.20;99.90
5210;DHT22;2624;48.048;11.706;2023-10-19T11:37:06;13.60;99.90
5210;DHT22;2624;48.048;11.706;2023-10-19T11:42:08;13.50;99.90
5210;DHT22;2624;48.048;11.706;2023-10-19T11:47:12;13.70;99.90
5210;DHT22;2624;48.048;11.706;2023-10-19T11:52:15;13.80;99.90
5210;DHT22;2624;48.048;11.706;2023-10-19T11:57:17;13.30;99.90
5210;DHT22;2624;48.048;11.706;2023-10-19T12:02:21;13.80;99.90
5210;DHT22;2624;48.048;11.706;2023-10-19T12:07:23;14.20;99.90
5210;DHT22;2624;48.048;11.706;2023-10-19T12:12:24;14.00;99.90
5210;DHT22;2624;48.048;11.706;2023-10-19T12:17:27;14.90;99.90
5210;DHT22;2624;48.048;11.706;2023-10-19T12:22:30;15.30;99.90
5210;DHT22;2624;48.048;11.706;2023-10-19T12:27:36;15.00;99.90
5210;DHT22;2624;48.048;11.706;2023-10-19T12:32:40;14.60;99.90
5210;DHT22;2624;48.048;11.706;2023-10-19T12:37:41;14.70;99.90
5210;DHT22;2624;48.048;11.706;2023-10-19T12:42:46;14.00;99.90
5210;DHT22;2624;48.048;11.706;2023-10-19T12:47:49;15.90;99.90
5210;DHT22;2624;48.048;11.706;2023-10-19T12:52:52;16.00;99.90
5210;DHT22;2624;48.048;11.706;2023-10-19T12:57:56;14.70;99.90
5210;DHT22;2624;48.048;11.706;2023-10-19T13:03:01;14.40;99.90
5210;DHT22;2624;48.048;11.706;2023-10-19T13:08:05;15.40;99.90
5210;DHT22;2624;48.048;11.706;2023-10-19T13:13:08;15.20;99.90
5210;DHT22;2624;48.048;11.706;2023-10-19T13:18:13;15.50;99.90
5210;DHT22;2624;48.048;11.706;2023-10-19T13:23:20;14.90;99.90
5210;DHT22;2624;48.048;11.706;2023-10-19T13:28:23;14.70;99.90
5210;DHT22;2624;48.048;11.706;2023-10-19T13:33:27;14.40;99.90
5210;DHT22;2624;48.048;11.706;2023-10-19T13:38:30;14.20;99.90
5210;DHT22;2624;48.048;11.706;2023-10-19T13:43:31;14.10;99.90
5210;DHT22;2624;48.048;11.706;2023-10-19T13:48:35;14.40;99.90
5210;DHT22;2624;48.048;11.706;2023-10-19T13:53:39;14.70;99.90
5210;DHT22;2624;48.048;11.706;2023-10-19T13:58:41;14.90;99.90
5210;DHT22;2624;48.048;11.706;2023-10-19T14:03:44;15.10;99.90
5210;DHT22;2624;48.048;11.706;2023-10-19T14:08:46;14.90;99.90
5210;DHT22;2624;48.048;11.706;2023-10-19T14:13:48;14.70;99.90
5210;DHT22;2624;48.048;11.706;2023-10-19T14:18:53;14.80;99.90
5210;DHT22;2624;48.048;11.706;2023-10-19T14:23:56;14.70;99.90
5210;DHT22;2624;48.048;11.706;2023-10-19T14:28:58;14.60;99.90
5210;DHT22;2624;48.048;11.706;2023-10-19T14:34:01;14.70;99.90
5210;DHT22;2624;48.048;11.706;2023-10-19T14:39:04;14.40;99.90
5210;DHT22;2624;48.048;11.706;2023-10-19T14:44:06;14.30;99.90
5210;DHT22;2624;48.048;11.706;2023-10-19T14:49:10;14.30;99.90
5210;DHT22;2624;48.048;11.706;2023-10-19T14:54:11;14.20;99.90
5210;DHT22;2624;48.048;11.706;2023-10-19T14:59:14;14.00;99.90
5210;DHT22;2624;48.048;11.706;2023-10-19T15:04:17;14.00;99.90
5210;DHT22;2624;48.048;11.706;2023-10-19T15:09:19;14.10;99.90
5210;DHT22;2624;48.048;11.706;2023-10-19T15:14:26;14.30;99.90
5210;DHT22;2624;48.048;11.706;2023-10-19T15:19:29;14.00;99.90
5210;DHT22;2624;48.048;11.706;2023-10-19T15:24:30;14.00;99.90
5210;DHT22;2624;48.048;11.706;2023-10-19T15:29:32;14.00;99.90
5210;DHT22;2624;48.048;11.706;2023-10-19T15:34:36;13.90;99.90
5210;DHT22;2624;48.048;11.706;2023-10-19T15:39:38;14.20;99.90
5210;DHT22;2624;48.048;11.706;2023-10-19T15:44:39;14.20;99.90
5210;DHT22;2624;48.048;11.706;2023-10-19T15:49:47;14.00;99.90
5210;DHT22;2624;48.048;11.706;2023-10-19T15:54:50;14.00;99.90
5210;DHT22;2624;48.048;11.706;2023-10-19T15:59:52;13.90;99.90
5210;DHT22;2624;48.048;11.706;2023-10-19T16:04:56;13.80;99.90
5210;DHT22;2624;48.048;11.706;2023-10-19T16:09:58;13.90;99.90
5210;DHT22;2624;48.048;11.706;2023-10-19T16:15:00;13.80;99.90
5210;DHT22;2624;48.048;11.706;2023-10-19T16:20:03;13.90;99.90
5210;DHT22;2624;48.048;11.706;2023-10-19T16:25:08;13.90;99.90
5210;DHT22;2624;48.048;11.706;2023-10-19T16:30:11;13.90;99.90
5210;DHT22;2624;48.048;11.706;2023-10-19T16:35:15;13.60;99.90
5210;DHT22;2624;48.048;11.706;2023-10-19T16:40:17;13.60;99.90
5210;DHT22;2624;48.048;11.706;2023-10-19T16:45:19;13.60;99.90
5210;DHT22;2624;48.048;11.706;2023-10-19T16:50:22;13.60;99.90
5210;DHT22;2624;48.048;11.706;2023-10-19T16:55:24;13.50;99.90
5210;DHT22;2624;48.048;11.706;2023-10-19T17:00:27;13.60;99.90
5210;DHT22;2624;48.048;11.706;2023-10-19T17:05:32;13.60;99.90
5210;DHT22;2624;48.048;11.706;2023-10-19T17:10:33;13.40;99.90
5210;DHT22;2624;48.048;11.706;2023-10-19T17:15:36;13.50;99.90
5210;DHT22;2624;48.048;11.706;2023-10-19T17:20:39;13.30;99.90
5210;DHT22;2624;48.048;11.706;2023-10-19T17:25:41;13.10;99.90
5210;DHT22;2624;48.048;11.706;2023-10-19T17:30:44;13.10;99.90
5210;DHT22;2624;48.048;11.706;2023-10-19T17:35:47;13.30;99.90
5210;DHT22;2624;48.048;11.706;2023-10-19T17:40:50;13.40;99.90
5210;DHT22;2624;48.048;11.706;2023-10-19T17:45:51;13.30;99.90
5210;DHT22;2624;48.048;11.706;2023-10-19T17:50:54;13.30;99.90
5210;DHT22;2624;48.048;11.706;2023-10-19T17:55:56;13.30;99.90
5210;DHT22;2624;48.048;11.706;2023-10-19T18:00:58;13.00;99.90
5210;DHT22;2624;48.048;11.706;2023-10-19T18:06:01;13.10;99.90
5210;DHT22;2624;48.048;11.706;2023-10-19T18:11:03;13.00;99.90
5210;DHT22;2624;48.048;11.706;2023-10-19T18:16:05;12.60;99.90
5210;DHT22;2624;48.048;11.706;2023-10-19T18:21:12;12.70;99.90
5210;DHT22;2624;48.048;11.706;2023-10-19T18:26:14;12.90;99.90
5210;DHT22;2624;48.048;11.706;2023-10-19T18:31:16;13.10;99.90
5210;DHT22;2624;48.048;11.706;2023-10-19T18:36:19;13.00;99.90
5210;DHT22;2624;48.048;11.706;2023-10-19T18:41:21;12.80;99.90
5210;DHT22;2624;48.048;11.706;2023-10-19T18:46:23;12.90;99.90
5210;DHT22;2624;48.048;11.706;2023-10-19T18:51:26;13.00;99.90
5210;DHT22;2624;48.048;11.706;2023-10-19T18:56:29;12.90;99.90
5210;DHT22;2624;48.048;11.706;2023-10-19T19:01:31;12.50;99.90
5210;DHT22;2624;48.048;11.706;2023-10-19T19:06:35;12.20;99.90
5210;DHT22;2624;48.048;11.706;2023-10-19T19:11:37;12.20;99.90
5210;DHT22;2624;48.048;11.706;2023-10-19T19:16:41;12.30;99.90
5210;DHT22;2624;48.048;11.706;2023-10-19T19:21:46;12.20;99.90
5210;DHT22;2624;48.048;11.706;2023-10-19T19:26:48;12.20;99.90
5210;DHT22;2624;48.048;11.706;2023-10-19T19:31:50;12.40;99.90
5210;DHT22;2624;48.048;11.706;2023-10-19T19:36:53;12.40;99.90
5210;DHT22;2624;48.048;11.706;2023-10-19T19:41:55;12.60;99.90
5210;DHT22;2624;48.048;11.706;2023-10-19T19:46:57;12.40;99.90
5210;DHT22;2624;48.048;11.706;2023-10-19T19:52:00;12.40;99.90
5210;DHT22;2624;48.048;11.706;2023-10-19T19:57:02;12.30;99.90
5210;DHT22;2624;48.048;11.706;2023-10-19T20:02:05;12.30;99.90
5210;DHT22;2624;48.048;11.706;2023-10-19T20:07:10;12.30;99.90
5210;DHT22;2624;48.048;11.706;2023-10-19T20:12:12;12.50;99.90
5210;DHT22;2624;48.048;11.706;2023-10-19T20:17:14;12.50;99.90
5210;DHT22;2624;48.048;11.706;2023-10-19T20:22:17;12.50;99.90
5210;DHT22;2624;48.048;11.706;2023-10-19T20:27:19;12.30;99.90
5210;DHT22;2624;48.048;11.706;2023-10-19T20:32:20;12.20;99.90
5210;DHT22;2624;48.048;11.706;2023-10-19T20:37:26;12.20;99.90
5210;DHT22;2624;48.048;11.706;2023-10-19T20:42:27;12.40;99.90
5210;DHT22;2624;48.048;11.706;2023-10-19T20:47:30;12.20;99.90
5210;DHT22;2624;48.048;11.706;2023-10-19T20:52:33;12.30;99.90
5210;DHT22;2624;48.048;11.706;2023-10-19T20:57:35;12.40;99.90
5210;DHT22;2624;48.048;11.706;2023-10-19T21:02:38;12.30;99.90
5210;DHT22;2624;48.048;11.706;2023-10-19T21:07:41;12.10;99.90
5210;DHT22;2624;48.048;11.706;2023-10-19T21:12:45;12.00;99.90
5210;DHT22;2624;48.048;11.706;2023-10-19T21:17:48;11.90;99.90
5210;DHT22;2624;48.048;11.706;2023-10-19T21:22:51;11.80;99.90
5210;DHT22;2624;48.048;11.706;2023-10-19T21:27:54;12.10;99.90
5210;DHT22;2624;48.048;11.706;2023-10-19T21:32:57;12.20;99.90
5210;DHT22;2624;48.048;11.706;2023-10-19T21:38:00;12.30;99.90
5210;DHT22;2624;48.048;11.706;2023-10-19T21:43:02;12.20;99.90
5210;DHT22;2624;48.048;11.706;2023-10-19T21:48:05;12.20;99.90
5210;DHT22;2624;48.048;11.706;2023-10-19T21:53:09;12.30;99.90
5210;DHT22;2624;48.048;11.706;2023-10-19T21:58:10;12.30;99.90
5210;DHT22;2624;48.048;11.706;2023-10-19T22:03:12;12.20;99.90
5210;DHT22;2624;48.048;11.706;2023-10-19T22:08:16;12.20;99.90
5210;DHT22;2624;48.048;11.706;2023-10-19T22:13:18;12.20;99.90
5210;DHT22;2624;48.048;11.706;2023-10-19T22:18:20;12.20;99.90
5210;DHT22;2624;48.048;11.706;2023-10-19T22:23:24;12.20;99.90
5210;DHT22;2624;48.048;11.706;2023-10-19T22:28:25;12.20;99.90
5210;DHT22;2624;48.048;11.706;2023-10-19T22:33:27;12.20;99.90
5210;DHT22;2624;48.048;11.706;2023-10-19T22:38:30;12.20;99.90
5210;DHT22;2624;48.048;11.706;2023-10-19T22:43:32;12.10;99.90
5210;DHT22;2624;48.048;11.706;2023-10-19T22:48:35;11.90;99.90
5210;DHT22;2624;48.048;11.706;2023-10-19T22:53:38;11.60;99.90
5210;DHT22;2624;48.048;11.706;2023-10-19T22:58:41;11.80;99.90
5210;DHT22;2624;48.048;11.706;2023-10-19T23:03:43;11.80;99.90
5210;DHT22;2624;48.048;11.706;2023-10-19T23:08:46;11.90;99.90
5210;DHT22;2624;48.048;11.706;2023-10-19T23:13:48;11.60;99.90
5210;DHT22;2624;48.048;11.706;2023-10-19T23:18:50;11.80;99.90
5210;DHT22;2624;48.048;11.706;2023-10-19T23:23:54;11.90;99.90
5210;DHT22;2624;48.048;11.706;2023-10-19T23:28:56;11.90;99.90
5210;DHT22;2624;48.048;11.706;2023-10-19T23:33:59;11.50;99.90
5210;DHT22;2624;48.048;11.706;2023-10-19T23:39:03;11.50;99.90
5210;DHT22;2624;48.048;11.706;2023-10-19T23:44:07;11.60;99.90
5210;DHT22;2624;48.048;11.706;2023-10-19T23:49:09;11.50;99.90
5210;DHT22;2624;48.048;11.706;2023-10-19T23:54:12;11.40;99.90
5210;DHT22;2624;48.048;11.706;2023-10-19T23:59:15;11.60;99.90
